createdAt,value
2019-02-22T00:02:37.608Z,32.83
2019-02-22T00:05:08.717Z,33.70
2019-02-22T00:07:39.042Z,32.83
2019-02-22T00:10:10.003Z,34.27
2019-02-22T00:12:40.642Z,35.60
2019-02-22T00:15:11.472Z,34.53
2019-02-22T00:17:41.910Z,34.10
2019-02-22T00:20:12.471Z,34.43
2019-02-22T00:22:43.090Z,34.37
2019-02-22T00:25:13.477Z,36.13
2019-02-22T00:27:43.817Z,34.63
2019-02-22T00:30:14.275Z,34.13
2019-02-22T00:32:44.860Z,36.37
2019-02-22T00:35:15.266Z,35.30
2019-02-22T00:37:45.969Z,35.17
2019-02-22T00:40:16.578Z,36.67
2019-02-22T00:42:46.963Z,35.23
2019-02-22T00:45:17.599Z,35.57
2019-02-22T00:47:47.933Z,34.80
2019-02-22T00:50:18.331Z,35.00
2019-02-22T00:52:48.726Z,34.73
2019-02-22T00:55:19.088Z,34.17
2019-02-22T00:57:49.922Z,35.07
2019-02-22T01:00:20.265Z,35.67
2019-02-22T01:02:50.961Z,34.70
2019-02-22T01:05:21.346Z,35.87
2019-02-22T01:07:52.072Z,37.47
2019-02-22T01:10:30.681Z,37.17
2019-02-22T01:12:55.771Z,35.27
2019-02-22T01:15:26.142Z,38.90
2019-02-22T01:17:56.587Z,38.13
2019-02-22T01:20:27.007Z,38.73
2019-02-22T01:22:57.322Z,38.43
2019-02-22T01:25:27.652Z,38.27
2019-02-22T01:27:58.074Z,40.27
2019-02-22T01:30:28.739Z,39.00
2019-02-22T01:32:59.075Z,39.57
2019-02-22T01:35:31.758Z,38.67
2019-02-22T01:38:02.431Z,39.77
2019-02-22T01:40:43.016Z,38.83
2019-02-22T01:43:05.247Z,39.57
2019-02-22T01:45:41.864Z,39.77
2019-02-22T01:48:12.601Z,40.20
2019-02-22T01:50:43.112Z,38.03
2019-02-22T01:53:13.472Z,36.33
2019-02-22T01:55:43.795Z,37.33
2019-02-22T01:58:14.435Z,40.40
2019-02-22T02:00:44.798Z,39.33
2019-02-22T02:03:15.405Z,38.77
2019-02-22T02:05:45.870Z,40.27
2019-02-22T02:08:16.841Z,38.10
2019-02-22T02:10:54.033Z,38.07
2019-02-22T02:13:19.273Z,39.80
2019-02-22T02:15:49.610Z,39.07
2019-02-22T02:18:20.656Z,39.20
2019-02-22T02:20:51.278Z,39.70
2019-02-22T02:23:22.372Z,38.67
2019-02-22T02:25:53.005Z,39.93
2019-02-22T02:28:23.398Z,38.53
2019-02-22T02:30:53.728Z,39.77
2019-02-22T02:33:24.919Z,40.37
2019-02-22T02:35:55.278Z,40.77
2019-02-22T02:38:25.956Z,42.43
2019-02-22T02:41:08.167Z,40.67
2019-02-22T02:43:28.741Z,40.57
2019-02-22T02:45:59.346Z,41.03
2019-02-22T02:48:30.246Z,37.57
2019-02-22T02:51:00.952Z,37.60
2019-02-22T02:53:31.355Z,40.73
2019-02-22T02:56:01.752Z,38.30
2019-02-22T02:58:32.137Z,39.37
2019-02-22T03:01:02.602Z,41.50
2019-02-22T03:03:33.216Z,41.23
2019-02-22T03:06:12.094Z,40.83
2019-02-22T03:08:42.452Z,39.17
2019-02-22T03:11:20.813Z,40.60
2019-02-22T03:13:44.909Z,40.27
2019-02-22T03:16:15.243Z,38.97
2019-02-22T03:18:45.990Z,40.27
2019-02-22T03:21:16.363Z,40.07
2019-02-22T03:23:47.063Z,40.67
2019-02-22T03:26:17.965Z,43.00
2019-02-22T03:28:48.623Z,39.77
2019-02-22T03:31:19.147Z,41.90
2019-02-22T03:33:49.822Z,41.53
2019-02-22T03:36:21.056Z,41.50
2019-02-22T03:38:51.414Z,41.63
2019-02-22T03:41:32.175Z,41.87
2019-02-22T03:43:53.869Z,42.97
2019-02-22T03:46:24.515Z,43.57
2019-02-22T03:48:55.328Z,43.33
2019-02-22T03:51:26.014Z,47.40
2019-02-22T03:53:59.088Z,46.97
2019-02-22T03:56:36.087Z,46.30
2019-02-22T03:59:06.917Z,49.83
2019-02-22T04:01:37.266Z,49.13
2019-02-22T04:04:07.650Z,50.23
2019-02-22T04:06:40.014Z,50.30
2019-02-22T04:09:13.231Z,50.17
2019-02-22T04:11:45.947Z,49.00
2019-02-22T04:14:16.113Z,49.70
2019-02-22T04:16:46.817Z,52.03
2019-02-22T04:19:17.582Z,49.40
2019-02-22T04:21:48.235Z,49.73
2019-02-22T04:24:18.932Z,49.17
2019-02-22T04:26:49.305Z,50.50
2019-02-22T04:29:20.067Z,50.37
2019-02-22T04:31:50.555Z,48.87
2019-02-22T04:34:21.298Z,51.03
2019-02-22T04:36:52.752Z,51.83
2019-02-22T04:39:23.101Z,49.97
2019-02-22T04:41:58.037Z,50.50
2019-02-22T04:44:26.229Z,51.83
2019-02-22T04:46:56.640Z,50.60
2019-02-22T04:49:27.314Z,50.57
2019-02-22T04:51:57.652Z,50.50
2019-02-22T04:54:28.594Z,49.27
2019-02-22T04:56:58.967Z,47.27
2019-02-22T04:59:29.353Z,46.07
2019-02-22T05:01:59.989Z,48.37
2019-02-22T05:04:30.366Z,45.83
2019-02-22T05:07:00.759Z,47.27
2019-02-22T05:09:31.787Z,47.43
2019-02-22T05:12:10.785Z,45.00
2019-02-22T05:14:35.004Z,45.60
2019-02-22T05:17:05.384Z,44.53
2019-02-22T05:19:36.116Z,49.50
2019-02-22T05:22:06.974Z,46.20
2019-02-22T05:24:37.330Z,45.40
2019-02-22T05:27:08.126Z,43.60
2019-02-22T05:29:38.752Z,45.13
2019-02-22T05:32:09.381Z,45.80
2019-02-22T05:34:39.754Z,44.73
2019-02-22T05:37:10.160Z,46.10
2019-02-22T05:39:40.533Z,45.60
2019-02-22T05:42:22.297Z,47.10
2019-02-22T05:44:42.851Z,46.87
2019-02-22T05:47:13.527Z,44.10
2019-02-22T05:49:43.894Z,45.33
2019-02-22T05:52:14.641Z,46.03
2019-02-22T05:54:45.304Z,45.17
2019-02-22T05:57:15.685Z,46.30
2019-02-22T05:59:46.008Z,44.80
2019-02-22T06:02:18.737Z,43.03
2019-02-22T06:04:49.106Z,44.93
2019-02-22T06:07:19.442Z,43.60
2019-02-22T06:09:49.854Z,43.23
2019-02-22T06:12:20.242Z,43.97
2019-02-22T06:14:50.581Z,41.87
2019-02-22T06:17:21.213Z,42.57
2019-02-22T06:19:52.313Z,36.90
2019-02-22T06:22:29.556Z,41.80
2019-02-22T06:24:55.795Z,41.67
2019-02-22T06:27:26.301Z,40.20
2019-02-22T06:29:56.647Z,40.30
2019-02-22T06:32:27.045Z,42.70
2019-02-22T06:34:58.058Z,41.97
2019-02-22T06:37:28.603Z,41.23
2019-02-22T06:40:05.705Z,43.53
2019-02-22T06:42:45.167Z,42.07
2019-02-22T06:45:08.387Z,41.00
2019-02-22T06:47:40.738Z,41.87
2019-02-22T06:50:11.208Z,38.17
2019-02-22T06:52:41.583Z,43.10
2019-02-22T06:55:12.684Z,40.73
2019-02-22T06:57:43.155Z,41.20
2019-02-22T07:00:13.632Z,43.53
2019-02-22T07:02:44.914Z,42.10
2019-02-22T07:05:15.245Z,41.83
2019-02-22T07:07:47.008Z,39.67
2019-02-22T07:10:17.752Z,42.53
2019-02-22T07:12:58.226Z,41.60
2019-02-22T07:15:28.571Z,40.07
2019-02-22T07:17:59.203Z,38.67
2019-02-22T07:20:29.902Z,40.43
2019-02-22T07:23:00.379Z,41.50
2019-02-22T07:25:31.197Z,42.00
2019-02-22T07:28:01.807Z,41.27
2019-02-22T07:30:35.378Z,43.17
2019-02-22T07:33:05.793Z,41.90
2019-02-22T07:35:36.165Z,40.93
2019-02-22T07:38:06.570Z,41.10
2019-02-22T07:40:36.957Z,41.43
2019-02-22T07:43:08.222Z,39.13
2019-02-22T07:45:38.851Z,37.83
2019-02-22T07:48:09.291Z,38.50
2019-02-22T07:50:39.937Z,39.07
2019-02-22T07:53:12.351Z,38.90
2019-02-22T07:55:42.693Z,38.43
2019-02-22T07:58:13.268Z,39.70
2019-02-22T08:00:51.519Z,39.03
2019-02-22T08:03:21.878Z,38.87
2019-02-22T08:05:52.471Z,38.90
2019-02-22T08:08:22.791Z,37.07
2019-02-22T08:10:53.170Z,35.77
2019-02-22T08:13:23.780Z,38.30
2019-02-22T08:15:54.129Z,34.97
2019-02-22T08:18:24.791Z,36.43
2019-02-22T08:20:55.214Z,35.80
2019-02-22T08:23:25.593Z,34.23
2019-02-22T08:25:55.933Z,36.17
2019-02-22T08:28:26.309Z,33.97
2019-02-22T08:30:57.152Z,35.57
2019-02-22T08:33:27.514Z,33.60
2019-02-22T08:35:57.899Z,33.80
2019-02-22T08:38:28.256Z,33.83
2019-02-22T08:40:59.180Z,33.23
2019-02-22T08:43:31.734Z,35.00
2019-02-22T08:46:02.324Z,34.83
2019-02-22T08:48:32.769Z,35.67
2019-02-22T08:51:03.424Z,34.83
2019-02-22T08:53:33.736Z,35.23
2019-02-22T08:56:04.135Z,34.47
2019-02-22T08:58:36.627Z,34.50
2019-02-22T09:01:07.509Z,32.63
2019-02-22T09:03:49.455Z,34.93
2019-02-22T09:06:09.996Z,30.67
2019-02-22T09:08:40.473Z,35.03
2019-02-22T09:11:11.932Z,33.67
2019-02-22T09:13:43.965Z,34.63
2019-02-22T09:16:14.562Z,34.53
2019-02-22T09:18:45.225Z,33.97
2019-02-22T09:21:16.154Z,34.53
2019-02-22T09:23:46.774Z,32.33
2019-02-22T09:26:17.240Z,34.77
2019-02-22T09:28:47.809Z,35.07
2019-02-22T09:31:18.548Z,34.73
2019-02-22T09:33:49.058Z,35.40
2019-02-22T09:36:19.813Z,34.53
2019-02-22T09:38:50.445Z,36.90
2019-02-22T09:41:20.831Z,35.30
2019-02-22T09:43:55.457Z,34.33
2019-02-22T09:46:23.850Z,35.53
2019-02-22T09:49:01.172Z,35.27
2019-02-22T09:51:31.903Z,37.10
2019-02-22T09:54:02.316Z,36.27
2019-02-22T09:56:33.248Z,35.13
2019-02-22T09:59:03.744Z,35.13
2019-02-22T10:01:34.071Z,32.60
2019-02-22T10:04:04.695Z,34.67
2019-02-22T10:06:35.061Z,34.57
2019-02-22T10:09:05.913Z,33.87
2019-02-22T10:11:36.585Z,35.13
2019-02-22T10:14:07.264Z,37.57
2019-02-22T10:16:37.836Z,36.17
2019-02-22T10:19:08.213Z,40.77
2019-02-22T10:21:38.663Z,39.37
2019-02-22T10:24:09.025Z,38.57
2019-02-22T10:26:39.822Z,38.90
2019-02-22T10:29:10.191Z,37.77
2019-02-22T10:31:40.547Z,37.10
2019-02-22T10:34:11.215Z,38.97
2019-02-22T10:36:48.567Z,37.47
2019-02-22T10:39:18.963Z,37.63
2019-02-22T10:41:49.684Z,36.63
2019-02-22T10:44:20.084Z,34.63
2019-02-22T10:46:50.915Z,34.60
2019-02-22T10:49:21.350Z,31.73
2019-02-22T10:51:52.082Z,31.63
2019-02-22T10:54:22.710Z,30.23
2019-02-22T10:56:53.551Z,29.17
2019-02-22T10:59:24.602Z,28.77
2019-02-22T11:01:55.102Z,28.93
2019-02-22T11:04:25.732Z,29.23
2019-02-22T11:06:56.198Z,30.97
2019-02-22T11:09:26.521Z,31.73
2019-02-22T11:11:56.870Z,32.80
2019-02-22T11:14:29.392Z,32.70
2019-02-22T11:16:59.751Z,31.93
2019-02-22T11:19:30.571Z,31.33
2019-02-22T11:22:00.905Z,30.17
2019-02-22T11:24:31.300Z,28.83
2019-02-22T11:27:01.953Z,30.40
2019-02-22T11:29:32.574Z,29.03
2019-02-22T11:32:02.974Z,29.47
2019-02-22T11:34:33.321Z,29.53
2019-02-22T11:37:04.180Z,27.97
2019-02-22T11:39:34.581Z,26.97
2019-02-22T11:42:05.064Z,26.57
2019-02-22T11:44:40.284Z,26.03
2019-02-22T11:47:08.354Z,23.63
2019-02-22T11:49:38.752Z,24.27
2019-02-22T11:52:09.129Z,23.30
2019-02-22T11:54:40.463Z,23.63
2019-02-22T11:57:11.328Z,23.43
2019-02-22T11:59:42.161Z,22.23
2019-02-22T12:02:12.613Z,23.13
2019-02-22T12:04:43.308Z,23.40
2019-02-22T12:07:13.857Z,22.57
2019-02-22T12:09:44.552Z,22.77
2019-02-22T12:12:21.103Z,22.63
2019-02-22T12:14:52.344Z,23.50
2019-02-22T12:17:27.516Z,23.80
2019-02-22T12:19:58.261Z,24.53
2019-02-22T12:22:29.144Z,25.63
2019-02-22T12:24:59.517Z,25.00
2019-02-22T12:27:29.945Z,23.60
2019-02-22T12:30:00.868Z,24.23
2019-02-22T12:32:31.232Z,26.07
2019-02-22T12:35:01.664Z,26.10
2019-02-22T12:37:32.395Z,26.70
2019-02-22T12:40:03.016Z,27.30
2019-02-22T12:42:33.401Z,28.70
2019-02-22T12:45:04.504Z,29.10
2019-02-22T12:47:34.982Z,27.33
2019-02-22T12:50:05.502Z,28.43
2019-02-22T12:52:36.149Z,28.10
2019-02-22T12:55:07.472Z,27.90
2019-02-22T12:57:38.002Z,27.50
2019-02-22T13:00:11.606Z,27.30
2019-02-22T13:02:42.373Z,27.17
2019-02-22T13:05:15.265Z,26.87
2019-02-22T13:07:45.610Z,29.53
2019-02-22T13:10:15.959Z,29.03
2019-02-22T13:12:46.360Z,28.67
2019-02-22T13:15:17.103Z,27.63
2019-02-22T13:17:47.592Z,27.40
2019-02-22T13:20:18.280Z,27.30
2019-02-22T13:22:48.750Z,27.57
2019-02-22T13:25:19.504Z,26.53
2019-02-22T13:27:50.888Z,27.03
2019-02-22T13:30:21.905Z,27.30
2019-02-22T13:32:52.624Z,26.90
2019-02-22T13:35:24.020Z,27.13
2019-02-22T13:37:54.376Z,26.60
2019-02-22T13:40:25.637Z,26.57
2019-02-22T13:42:55.987Z,26.23
2019-02-22T13:45:27.338Z,24.73
2019-02-22T13:47:58.057Z,25.43
2019-02-22T13:50:28.722Z,23.43
2019-02-22T13:53:00.058Z,24.00
2019-02-22T13:55:30.418Z,22.20
2019-02-22T13:58:00.892Z,22.67
2019-02-22T14:00:31.532Z,23.27
2019-02-22T14:03:04.947Z,23.27
2019-02-22T14:05:34.770Z,24.53
2019-02-22T14:08:05.136Z,24.97
2019-02-22T14:10:35.675Z,23.47
2019-02-22T14:13:06.410Z,24.63
2019-02-22T14:15:38.238Z,25.13
2019-02-22T14:18:09.266Z,24.07
2019-02-22T14:20:39.971Z,23.60
2019-02-22T14:23:10.362Z,24.17
2019-02-22T14:25:41.031Z,23.63
2019-02-22T14:28:12.238Z,22.90
2019-02-22T14:30:42.760Z,24.60
2019-02-22T14:33:13.494Z,22.77
2019-02-22T14:35:43.869Z,23.87
2019-02-22T14:38:14.575Z,24.17
2019-02-22T14:40:45.230Z,22.53
2019-02-22T14:43:17.674Z,23.33
2019-02-22T14:45:50.550Z,23.80
2019-02-22T14:48:21.052Z,22.43
2019-02-22T14:50:51.946Z,22.70
2019-02-22T14:53:22.673Z,21.87
2019-02-22T14:55:53.678Z,20.17
2019-02-22T14:58:24.090Z,19.30
2019-02-22T15:00:55.534Z,17.30
2019-02-22T15:03:26.830Z,16.10
2019-02-22T15:05:57.221Z,15.20
2019-02-22T15:08:27.585Z,14.67
2019-02-22T15:10:57.948Z,13.80
2019-02-22T15:13:28.323Z,14.77
2019-02-22T15:16:16.302Z,13.50
2019-02-22T15:18:46.985Z,13.63
2019-02-22T15:21:18.740Z,12.63
2019-02-22T15:23:49.624Z,13.17
2019-02-22T15:26:20.294Z,12.97
2019-02-22T15:28:50.755Z,12.73
2019-02-22T15:31:21.374Z,13.13
2019-02-22T15:33:51.756Z,12.10
2019-02-22T15:36:23.239Z,11.73
2019-02-22T15:38:53.585Z,12.13
2019-02-22T15:41:23.980Z,11.53
2019-02-22T15:43:54.397Z,12.27
2019-02-22T15:46:24.800Z,10.60
2019-02-22T15:48:56.461Z,11.43
2019-02-22T15:51:26.882Z,10.83
2019-02-22T15:53:57.620Z,10.47
2019-02-22T15:56:28.023Z,9.50
2019-02-22T15:58:58.654Z,10.40
2019-02-22T16:01:29.075Z,9.57
2019-02-22T16:04:20.183Z,9.50
2019-02-22T16:06:51.255Z,10.10
2019-02-22T16:09:21.639Z,9.97
2019-02-22T16:11:53.394Z,9.00
2019-02-22T16:14:24.085Z,8.80
2019-02-22T16:16:54.722Z,8.40
2019-02-22T16:19:26.150Z,9.33
2019-02-22T16:21:56.536Z,8.37
2019-02-22T16:24:27.208Z,8.80
2019-02-22T16:27:03.831Z,8.40
2019-02-22T16:29:34.666Z,8.13
2019-02-22T16:32:05.811Z,8.10
2019-02-22T16:34:43.580Z,8.43
2019-02-22T16:37:09.017Z,9.30
2019-02-22T16:39:43.635Z,8.70
2019-02-22T16:42:14.042Z,8.67
2019-02-22T16:44:44.654Z,9.43
2019-02-22T16:47:21.861Z,9.07
2019-02-22T16:49:52.201Z,9.07
2019-02-22T16:52:22.566Z,9.33
2019-02-22T16:54:52.949Z,9.20
2019-02-22T16:57:24.700Z,9.57
2019-02-22T16:59:55.065Z,8.70
2019-02-22T17:02:25.833Z,9.27
2019-02-22T17:04:56.215Z,9.40
2019-02-22T17:07:26.593Z,8.80
2019-02-22T17:09:57.445Z,9.37
2019-02-22T17:12:27.832Z,9.73
2019-02-22T17:15:04.275Z,8.57
2019-02-22T17:17:34.669Z,9.23
2019-02-22T17:20:05.701Z,8.87
2019-02-22T17:22:36.621Z,8.53
2019-02-22T17:25:09.078Z,9.10
2019-02-22T17:27:39.405Z,8.83
2019-02-22T17:30:12.093Z,8.63
2019-02-22T17:32:42.538Z,9.67
2019-02-22T17:35:12.929Z,9.17
2019-02-22T17:37:43.375Z,9.00
2019-02-22T17:40:14.914Z,9.40
2019-02-22T17:42:45.652Z,9.57
2019-02-22T17:45:16.040Z,9.63
2019-02-22T17:47:46.472Z,10.23
2019-02-22T17:50:17.940Z,9.73
2019-02-22T17:52:48.651Z,9.77
2019-02-22T17:55:19.327Z,10.27
2019-02-22T17:57:49.678Z,10.47
2019-02-22T18:00:21.260Z,10.13
2019-02-22T18:02:51.653Z,12.67
2019-02-22T18:05:22.074Z,10.37
2019-02-22T18:07:53.535Z,11.10
2019-02-22T18:10:23.868Z,10.70
2019-02-22T18:12:54.234Z,11.27
2019-02-22T18:15:24.854Z,11.40
2019-02-22T18:17:56.590Z,11.33
2019-02-22T18:20:27.237Z,11.03
2019-02-22T18:22:57.766Z,11.63
2019-02-22T18:25:28.138Z,12.00
2019-02-22T18:27:58.462Z,11.13
2019-02-22T18:30:28.875Z,11.27
2019-02-22T18:32:59.276Z,11.70
2019-02-22T18:35:29.946Z,11.03
2019-02-22T18:38:00.302Z,11.30
2019-02-22T18:40:30.707Z,11.30
2019-02-22T18:43:01.104Z,11.17
2019-02-22T18:45:32.107Z,11.03
2019-02-22T18:48:03.750Z,10.23
2019-02-22T18:50:34.135Z,10.83
2019-02-22T18:53:04.931Z,11.70
2019-02-22T18:55:35.625Z,11.63
2019-02-22T18:58:05.976Z,11.10
2019-02-22T19:00:36.658Z,11.73
2019-02-22T19:03:07.380Z,12.20
2019-02-22T19:05:37.785Z,11.93
2019-02-22T19:08:08.423Z,11.13
2019-02-22T19:10:38.787Z,12.40
2019-02-22T19:13:09.546Z,12.73
2019-02-22T19:15:40.144Z,12.57
2019-02-22T19:18:10.586Z,12.60
2019-02-22T19:20:40.994Z,12.53
2019-02-22T19:23:13.993Z,13.53
2019-02-22T19:25:44.598Z,14.03
2019-02-22T19:28:15.696Z,15.37
2019-02-22T19:30:47.148Z,14.80
2019-02-22T19:33:17.546Z,15.90
2019-02-22T19:35:47.945Z,15.87
2019-02-22T19:38:18.579Z,16.13
2019-02-22T19:40:49.266Z,16.17
2019-02-22T19:43:38.802Z,16.60
2019-02-22T19:46:09.318Z,16.93
2019-02-22T19:48:39.988Z,16.70
2019-02-22T19:51:10.946Z,18.80
2019-02-22T19:53:41.327Z,18.63
2019-02-22T19:56:11.797Z,19.27
2019-02-22T19:58:43.303Z,20.37
2019-02-22T20:01:21.553Z,21.20
2019-02-22T20:03:52.004Z,21.50
2019-02-22T20:06:22.577Z,20.13
2019-02-22T20:08:53.359Z,20.70
2019-02-22T20:11:23.866Z,21.07
2019-02-22T20:13:54.759Z,20.23
2019-02-22T20:16:26.584Z,21.43
2019-02-22T20:18:57.008Z,21.80
2019-02-22T20:21:27.412Z,20.00
2019-02-22T20:24:07.960Z,20.90
2019-02-22T20:26:38.425Z,23.80
2019-02-22T20:29:08.752Z,23.27
2019-02-22T20:31:39.148Z,23.20
2019-02-22T20:34:09.947Z,22.40
2019-02-22T20:36:40.285Z,22.90
2019-02-22T20:39:10.649Z,23.37
2019-02-22T20:41:45.279Z,22.37
2019-02-22T20:44:15.955Z,24.07
2019-02-22T20:46:47.057Z,22.87
2019-02-22T20:49:17.579Z,23.50
2019-02-22T20:51:47.999Z,23.37
2019-02-22T20:54:18.608Z,23.07
2019-02-22T20:56:48.963Z,23.73
2019-02-22T20:59:49.894Z,24.20
2019-02-22T21:02:20.897Z,25.33
2019-02-22T21:04:51.252Z,24.30
2019-02-22T21:07:21.672Z,24.73
2019-02-22T21:09:52.703Z,22.97
2019-02-22T21:12:23.495Z,23.60
2019-02-22T21:14:53.937Z,23.93
2019-02-22T21:17:24.717Z,23.80
2019-02-22T21:19:55.701Z,24.57
2019-02-22T21:22:42.782Z,22.50
2019-02-22T21:25:13.301Z,22.60
2019-02-22T21:27:43.723Z,23.63
2019-02-22T21:30:15.229Z,22.93
2019-02-22T21:32:45.968Z,24.33
2019-02-22T21:35:26.650Z,24.50
2019-02-22T21:37:57.064Z,25.07
2019-02-22T21:40:27.397Z,26.80
2019-02-22T21:42:57.742Z,25.30
2019-02-22T21:45:28.364Z,25.93
2019-02-22T21:47:58.750Z,25.73
2019-02-22T21:50:29.181Z,27.60
2019-02-22T21:52:59.523Z,25.70
2019-02-22T21:55:29.889Z,25.57
2019-02-22T21:58:00.491Z,25.70
2019-02-22T22:00:30.964Z,26.00
2019-02-22T22:03:01.334Z,26.03
2019-02-22T22:05:31.700Z,26.77
2019-02-22T22:08:02.653Z,25.57
2019-02-22T22:10:33.075Z,26.13
2019-02-22T22:13:03.715Z,26.63
2019-02-22T22:15:33.989Z,26.30
2019-02-22T22:18:06.749Z,26.20
2019-02-22T22:20:37.040Z,25.90
2019-02-22T22:23:07.636Z,25.60
2019-02-22T22:25:38.308Z,26.77
2019-02-22T22:28:08.665Z,27.43
2019-02-22T22:30:39.443Z,25.87
2019-02-22T22:33:09.907Z,26.07
2019-02-22T22:35:40.181Z,24.80
2019-02-22T22:38:10.852Z,25.13
2019-02-22T22:40:41.168Z,25.57
2019-02-22T22:43:12.011Z,26.63
2019-02-22T22:45:42.419Z,26.47
2019-02-22T22:48:18.346Z,24.57
2019-02-22T22:50:48.701Z,25.17
2019-02-22T22:53:19.388Z,24.60
2019-02-22T22:55:49.759Z,25.57
2019-02-22T22:58:20.094Z,24.50
2019-02-22T23:01:17.906Z,23.33
2019-02-22T23:03:48.811Z,24.43
2019-02-22T23:06:19.737Z,26.13
2019-02-22T23:08:50.149Z,25.07
2019-02-22T23:11:20.726Z,23.10
2019-02-22T23:13:51.470Z,23.73
2019-02-22T23:16:21.798Z,24.20
2019-02-22T23:19:01.508Z,23.37
2019-02-22T23:21:25.198Z,21.20
2019-02-22T23:23:55.566Z,21.57
2019-02-22T23:26:25.967Z,19.97
2019-02-22T23:28:56.351Z,20.17
2019-02-22T23:31:26.650Z,20.07
2019-02-22T23:33:57.018Z,19.43
2019-02-22T23:36:27.727Z,19.27
2019-02-22T23:38:58.250Z,20.00
2019-02-22T23:41:28.640Z,18.47
2019-02-22T23:43:59.089Z,19.87
2019-02-22T23:46:29.488Z,18.70
2019-02-22T23:49:00.305Z,19.47
2019-02-22T23:51:30.925Z,18.67
2019-02-22T23:54:01.296Z,19.17
2019-02-22T23:56:32.273Z,17.47
2019-02-22T23:59:02.668Z,19.07
